Greenville, SC (29611)

2:37 PM EDT on September 30, 2016 (GMT -0400)
APRSWXNET | | Change Station

Elev 961 ft 34.84 °N, 82.40 °W | Updated 22 minutes ago

Clear
Clear
75 °F
Feels Like 77 °F
N
5
Wind Variable Wind from SSE
Gusts 0.0 mph

Today
High -- | Low -- °F
--% Chance of Precip.
Yesterday
High -- | Low -- °F
Precip. -- in
Pressure 29.99 in
Visibility 10.0 miles
Clouds Clear
Heat Index 77 °F
Dew Point 47 °F
Humidity 37%
Rainfall in
Snow Depth Not available.
7:24 AM 7:14 PM
Waning Crescent, 0% visible
METAR KGMU 301753Z 22007G16KT 10SM CLR 24/07 A3001 RMK AO2 SLP155 T02390067 10244 20133 58004
Pressure 29.99 in
Visibility 10.0 miles
Clouds Clear
Heat Index 77 °F
Dew Point 47 °F
Humidity 37%
Rainfall in
Snow Depth Not available.
7:24 AM 7:14 PM
Waning Crescent, 0% visible
METAR KGMU 301753Z 22007G16KT 10SM CLR 24/07 A3001 RMK AO2 SLP155 T02390067 10244 20133 58004

10-Day Weather Forecast

Almanac

Astronomy

Sep. 30, 2016 Rise Set
Actual Time
Civil Twilight
Nautical Twilight
Astronomical Twilight
Moon
Length of Visible Light
Length of Day
Tomorrow will be .
, % of the Moon is Illuminated

Today's Extremes

State Highs State Lows

Community

WunderPhotos

Upload Photos

1,942,753 photos uploaded!

WunderBlog® & News

Nearby

Air Quality

  Air Quality AQ Index Pollutant
Not available.

Snow Depth

Station Depth Elevation

Earthquake Activity

City Distance Mag. Time & Date
Minimum magnitude displayed is 2.5.

Coastal Water Temperatures

Place Temperature

Stations

Nearby Weather Stations

Station Location Temp. Windchill Dew Point Humidity Wind Precip. Elev Updated Type
                   

Watches & Warnings

There are currently no watches in effect.